Westervoort, Netherlands
Current Conditions -  °F | °C
As of 8:55 AM on Tuesday 21 Oct 2014 (Local Time) from EHDL Reporting Station
Overcast Overcast  
Wind Chill: 54°   Ceiling: 4100
Heat Index: 54°   Visibility: 6mi
Dew Point: 50°   Wind: 16mph
Humidity: 88%   Direction: 200°SSW
Pressure: 29.68"   Gusts: NA
Location:  51.96°N, 5.97°E
Report Text: EHDL 210655Z AUTO 20014KT 9999 SCT013 SCT034 OVC041 12/10 Q1005 GRN
Loading
Personal Weather Stations






























Interactive Weather Map
Tropical Storm Tracking
New forecast layout! Learn more

10-Day Weather Forecast

Advertisements
Track Severe Weather on mobile